createdAt,value
2023-03-24T00:01:32.045Z,3.83
2023-03-24T00:04:03.004Z,4.10
2023-03-24T00:06:34.720Z,4.07
2023-03-24T00:09:04.197Z,4.00
2023-03-24T00:11:35.225Z,3.67
2023-03-24T00:14:04.333Z,3.70
2023-03-24T00:16:34.889Z,3.67
2023-03-24T00:19:05.696Z,3.90
2023-03-24T00:21:34.448Z,3.60
2023-03-24T00:24:04.982Z,3.93
2023-03-24T00:26:34.014Z,3.00
2023-03-24T00:29:03.432Z,3.80
2023-03-24T00:31:33.115Z,3.70
2023-03-24T00:34:03.124Z,3.83
2023-03-24T00:36:33.243Z,4.30
2023-03-24T00:39:02.749Z,3.40
2023-03-24T00:41:31.870Z,3.47
2023-03-24T00:44:03.955Z,3.50
2023-03-24T00:46:35.598Z,3.57
2023-03-24T00:49:07.143Z,3.40
2023-03-24T00:51:39.228Z,3.47
2023-03-24T00:54:09.708Z,3.40
2023-03-24T00:56:40.814Z,3.33
2023-03-24T00:59:11.344Z,3.27
2023-03-24T01:01:41.703Z,3.30
2023-03-24T01:04:11.478Z,3.40
2023-03-24T01:06:42.253Z,3.00
2023-03-24T01:09:10.931Z,2.97
2023-03-24T01:11:42.005Z,3.00
2023-03-24T01:14:11.526Z,3.00
2023-03-24T01:16:40.910Z,3.37
2023-03-24T01:19:10.647Z,3.20
2023-03-24T01:21:42.374Z,3.70
2023-03-24T01:24:11.316Z,3.40
2023-03-24T01:26:40.252Z,3.90
2023-03-24T01:29:08.907Z,3.73
2023-03-24T01:31:38.090Z,3.40
2023-03-24T01:34:06.859Z,3.47
2023-03-24T01:36:35.609Z,3.47
2023-03-24T01:39:05.983Z,3.33
2023-03-24T01:41:37.321Z,3.63
2023-03-24T01:44:29.027Z,3.50
2023-03-24T01:46:58.299Z,3.20
2023-03-24T01:49:33.442Z,3.70
2023-03-24T01:52:06.257Z,3.30
2023-03-24T01:54:42.291Z,3.80
2023-03-24T01:57:15.775Z,3.73
2023-03-24T01:59:53.023Z,3.33
2023-03-24T02:02:23.177Z,3.60
2023-03-24T02:04:54.672Z,3.60
2023-03-24T02:07:33.164Z,3.53
2023-03-24T02:10:06.757Z,4.00
2023-03-24T02:12:35.504Z,4.30
2023-03-24T02:15:06.107Z,3.80
2023-03-24T02:17:57.406Z,4.10
2023-03-24T02:20:51.479Z,4.20
2023-03-24T02:23:44.548Z,4.70
2023-03-24T02:26:45.482Z,4.53
2023-03-24T02:29:51.987Z,4.37
2023-03-24T02:32:54.852Z,4.30
2023-03-24T02:35:58.926Z,4.50
2023-03-24T02:39:16.352Z,4.10
2023-03-24T02:41:56.841Z,4.77
2023-03-24T02:44:32.482Z,4.80
2023-03-24T02:47:06.823Z,4.80
2023-03-24T02:49:41.714Z,4.87
2023-03-24T02:52:22.066Z,5.50
2023-03-24T02:54:59.209Z,4.97
2023-03-24T02:57:34.963Z,5.23
2023-03-24T03:00:09.765Z,4.70
2023-03-24T03:02:45.543Z,5.43
2023-03-24T03:05:19.539Z,5.03
2023-03-24T03:07:50.469Z,4.77
2023-03-24T03:10:24.965Z,5.33
2023-03-24T03:12:58.908Z,5.20
2023-03-24T03:15:31.039Z,5.47
2023-03-24T03:18:07.577Z,5.20
2023-03-24T03:20:42.927Z,5.53
2023-03-24T03:23:16.725Z,5.07
2023-03-24T03:25:50.511Z,5.17
2023-03-24T03:28:25.889Z,4.80
2023-03-24T03:30:57.216Z,5.10
2023-03-24T03:33:27.945Z,4.70
2023-03-24T03:36:04.511Z,4.67
2023-03-24T03:38:43.666Z,5.03
2023-03-24T03:41:12.572Z,5.37
2023-03-24T03:43:43.156Z,5.07
2023-03-24T03:46:12.308Z,5.27
2023-03-24T03:48:42.400Z,5.03
2023-03-24T03:51:14.153Z,5.70
2023-03-24T03:53:49.718Z,5.93
2023-03-24T03:56:21.689Z,5.63
2023-03-24T03:58:53.671Z,5.27
2023-03-24T04:01:25.888Z,5.60
2023-03-24T04:04:11.954Z,5.50
2023-03-24T04:06:46.088Z,5.80
2023-03-24T04:09:34.318Z,5.57
2023-03-24T04:12:40.704Z,5.87
2023-03-24T04:15:36.339Z,6.27
2023-03-24T04:18:46.730Z,5.33
2023-03-24T04:21:42.509Z,6.30
2023-03-24T04:24:26.881Z,5.40
2023-03-24T04:27:01.270Z,4.90
2023-03-24T04:29:37.179Z,4.40
2023-03-24T04:32:19.697Z,4.77
2023-03-24T04:34:54.715Z,4.30
2023-03-24T04:37:26.847Z,4.10
2023-03-24T04:39:58.927Z,3.33
2023-03-24T04:42:32.546Z,3.37
2023-03-24T04:45:03.129Z,3.30
2023-03-24T04:47:38.695Z,3.17
2023-03-24T04:50:11.571Z,3.20
2023-03-24T04:52:41.401Z,3.00
2023-03-24T04:55:41.304Z,2.53
2023-03-24T04:58:09.933Z,2.90
2023-03-24T05:00:38.898Z,2.63
2023-03-24T05:03:08.893Z,2.43
2023-03-24T05:05:37.510Z,2.60
2023-03-24T05:08:06.336Z,2.67
2023-03-24T05:10:34.807Z,2.93
2023-03-24T05:13:03.719Z,2.30
2023-03-24T05:15:32.499Z,2.53
2023-03-24T05:18:01.466Z,1.50
2023-03-24T05:20:31.840Z,1.67
2023-03-24T05:23:01.709Z,1.90
2023-03-24T05:25:30.367Z,1.17
2023-03-24T05:27:59.560Z,1.70
2023-03-24T05:30:28.151Z,1.50
2023-03-24T05:32:56.746Z,1.60
2023-03-24T05:35:25.949Z,2.00
2023-03-24T05:37:56.191Z,2.07
2023-03-24T05:40:25.323Z,1.97
2023-03-24T05:42:53.983Z,2.10
2023-03-24T05:45:22.472Z,2.33
2023-03-24T05:47:51.757Z,2.33
2023-03-24T05:50:20.432Z,2.20
2023-03-24T05:52:51.043Z,2.60
2023-03-24T05:55:22.136Z,2.67
2023-03-24T05:57:51.272Z,2.50
2023-03-24T06:00:23.486Z,2.80
2023-03-24T06:02:52.297Z,3.30
2023-03-24T06:05:21.257Z,2.97
2023-03-24T06:07:49.836Z,2.97
2023-03-24T06:10:19.863Z,3.00
2023-03-24T06:12:50.240Z,3.13
2023-03-24T06:15:19.154Z,2.90
2023-03-24T06:17:47.954Z,3.40
2023-03-24T06:20:18.718Z,3.27
2023-03-24T06:22:48.691Z,3.00
2023-03-24T06:25:20.429Z,3.13
2023-03-24T06:27:52.172Z,3.50
2023-03-24T06:30:21.072Z,3.63
2023-03-24T06:32:51.482Z,4.47
2023-03-24T06:35:20.114Z,4.80
2023-03-24T06:37:48.634Z,4.00
2023-03-24T06:40:17.787Z,3.93
2023-03-24T06:42:46.687Z,3.37
2023-03-24T06:45:16.872Z,3.80
2023-03-24T06:47:45.682Z,3.73
2023-03-24T06:50:14.256Z,3.53
2023-03-24T06:52:43.152Z,3.27
2023-03-24T06:55:11.933Z,3.23
2023-03-24T06:57:40.663Z,3.40
2023-03-24T07:00:11.793Z,3.50
2023-03-24T07:02:43.066Z,3.10
2023-03-24T07:05:12.639Z,3.30
2023-03-24T07:10:14.609Z,2.83
2023-03-24T07:12:43.551Z,3.10
2023-03-24T07:15:13.017Z,2.70
2023-03-24T07:17:44.398Z,3.43
2023-03-24T07:20:13.138Z,2.13
2023-03-24T07:22:41.679Z,2.70
2023-03-24T07:25:10.828Z,2.20
2023-03-24T07:27:41.755Z,2.70
2023-03-24T07:30:12.309Z,2.40
2023-03-24T07:32:43.077Z,2.60
2023-03-24T07:35:14.039Z,2.57
2023-03-24T07:37:43.162Z,2.43
2023-03-24T07:40:13.862Z,2.23
2023-03-24T07:42:43.267Z,2.60
2023-03-24T07:45:14.351Z,2.17
2023-03-24T07:47:46.310Z,2.10
2023-03-24T07:50:17.095Z,2.10
2023-03-24T07:52:51.051Z,2.00
2023-03-24T07:55:20.141Z,1.93
2023-03-24T07:57:49.769Z,2.30
2023-03-24T08:00:20.714Z,1.97
2023-03-24T08:02:52.179Z,3.30
2023-03-24T08:05:23.251Z,3.03
2023-03-24T08:07:55.917Z,3.60
2023-03-24T08:10:27.327Z,3.17
2023-03-24T08:12:56.599Z,2.17
2023-03-24T08:15:25.669Z,2.30
2023-03-24T08:17:54.995Z,2.00
2023-03-24T08:20:25.710Z,1.80
2023-03-24T08:22:57.262Z,2.17
2023-03-24T08:25:27.035Z,2.00
2023-03-24T08:27:56.057Z,2.10
2023-03-24T08:30:26.499Z,2.10
2023-03-24T08:32:56.952Z,2.30
2023-03-24T08:35:29.254Z,1.73
2023-03-24T08:37:59.467Z,2.33
2023-03-24T08:40:29.978Z,1.70
2023-03-24T08:43:00.054Z,2.27
2023-03-24T08:45:30.787Z,2.00
2023-03-24T08:48:01.543Z,2.00
2023-03-24T08:50:35.254Z,2.20
2023-03-24T08:53:04.913Z,1.90
2023-03-24T08:55:33.998Z,2.17
2023-03-24T08:58:03.304Z,1.67
2023-03-24T09:00:31.923Z,2.07
2023-03-24T09:03:01.567Z,1.67
2023-03-24T09:05:54.207Z,1.97
2023-03-24T09:08:21.218Z,2.03
2023-03-24T09:10:51.442Z,2.00
2023-03-24T09:13:21.296Z,1.90
2023-03-24T09:15:51.881Z,2.33
2023-03-24T09:18:21.551Z,1.60
2023-03-24T09:20:52.655Z,1.87
2023-03-24T09:23:22.909Z,1.53
2023-03-24T09:25:52.236Z,1.30
2023-03-24T09:28:21.650Z,1.57
2023-03-24T09:30:51.624Z,2.10
2023-03-24T09:33:20.518Z,1.70
2023-03-24T09:35:59.251Z,1.80
2023-03-24T09:38:30.304Z,1.73
2023-03-24T09:41:04.535Z,1.63
2023-03-24T09:43:38.893Z,2.03
2023-03-24T09:46:12.949Z,1.90
2023-03-24T09:48:47.128Z,1.67
2023-03-24T09:51:24.099Z,2.37
2023-03-24T09:53:59.421Z,2.03
2023-03-24T09:56:29.922Z,2.27
2023-03-24T09:59:06.337Z,1.80
2023-03-24T10:01:36.594Z,2.70
2023-03-24T10:04:06.159Z,1.77
2023-03-24T10:06:42.449Z,1.97
2023-03-24T10:09:28.857Z,1.80
2023-03-24T10:12:09.120Z,2.00
2023-03-24T10:14:53.489Z,2.40
2023-03-24T10:17:31.849Z,1.83
2023-03-24T10:20:06.021Z,2.43
2023-03-24T10:22:41.275Z,2.50
2023-03-24T10:25:21.686Z,2.17
2023-03-24T10:27:55.741Z,2.57
2023-03-24T10:30:28.572Z,1.73
2023-03-24T10:32:57.473Z,1.93
2023-03-24T10:35:29.639Z,1.97
2023-03-24T10:38:03.242Z,1.63
2023-03-24T10:40:34.560Z,1.80
2023-03-24T10:43:09.314Z,1.63
2023-03-24T10:45:44.227Z,1.70
2023-03-24T10:48:15.476Z,2.03
2023-03-24T10:50:46.272Z,1.83
2023-03-24T10:53:21.738Z,1.83
2023-03-24T10:55:50.958Z,1.60
2023-03-24T10:58:26.064Z,1.80
2023-03-24T11:00:55.740Z,1.50
2023-03-24T11:03:31.003Z,1.40
2023-03-24T11:06:01.529Z,1.80
2023-03-24T11:08:37.202Z,1.43
2023-03-24T11:11:16.838Z,1.20
2023-03-24T11:13:57.227Z,1.70
2023-03-24T11:16:30.374Z,1.47
2023-03-24T11:19:01.468Z,1.80
2023-03-24T11:21:31.640Z,1.30
2023-03-24T11:24:04.587Z,1.63
2023-03-24T11:26:35.919Z,1.40
2023-03-24T11:29:07.932Z,1.20
2023-03-24T11:31:40.291Z,1.23
2023-03-24T11:34:14.715Z,1.17
2023-03-24T11:36:49.809Z,1.40
2023-03-24T11:39:24.065Z,1.53
2023-03-24T11:42:02.365Z,1.10
2023-03-24T11:44:34.642Z,1.40
2023-03-24T11:47:10.350Z,1.63
2023-03-24T11:49:44.739Z,2.07
2023-03-24T11:52:22.940Z,2.50
2023-03-24T11:54:53.508Z,2.30
2023-03-24T11:57:37.870Z,1.70
2023-03-24T12:00:10.658Z,1.90
2023-03-24T12:02:54.904Z,2.10
2023-03-24T12:05:30.456Z,2.03
2023-03-24T12:08:36.528Z,1.80
2023-03-24T12:11:19.464Z,1.70
2023-03-24T12:13:50.823Z,1.97
2023-03-24T12:16:40.428Z,1.07
2023-03-24T12:19:43.961Z,1.40
2023-03-24T12:22:25.081Z,1.30
2023-03-24T12:25:27.960Z,1.40
2023-03-24T12:28:08.821Z,1.40
2023-03-24T12:30:44.271Z,1.87
2023-03-24T12:33:34.244Z,1.60
2023-03-24T12:36:22.500Z,1.37
2023-03-24T12:39:02.660Z,1.40
2023-03-24T12:41:53.276Z,1.33
2023-03-24T12:44:47.710Z,1.80
2023-03-24T12:47:29.207Z,2.03
2023-03-24T12:50:09.018Z,1.60
2023-03-24T12:55:37.943Z,1.67
2023-03-24T12:58:15.547Z,1.60
2023-03-24T13:00:59.045Z,1.43
2023-03-24T13:03:36.601Z,1.90
2023-03-24T13:06:17.743Z,1.50
2023-03-24T13:08:54.124Z,1.60
2023-03-24T13:11:33.284Z,1.70
2023-03-24T13:14:07.266Z,2.10
2023-03-24T13:16:39.311Z,1.80
2023-03-24T13:19:17.542Z,1.77
2023-03-24T13:21:47.181Z,1.77
2023-03-24T13:24:16.523Z,2.00
2023-03-24T13:26:55.300Z,2.30
2023-03-24T13:29:53.518Z,1.90
2023-03-24T13:32:36.621Z,4.07
2023-03-24T13:35:13.803Z,2.00
2023-03-24T13:37:46.589Z,2.50
2023-03-24T13:40:23.434Z,1.43
2023-03-24T13:42:57.225Z,1.73
2023-03-24T13:45:41.046Z,1.90
2023-03-24T13:48:32.680Z,1.57
2023-03-24T13:51:05.937Z,2.33
2023-03-24T13:53:41.158Z,1.63
2023-03-24T13:56:12.620Z,1.57
2023-03-24T13:59:07.953Z,1.30
2023-03-24T14:01:40.073Z,1.70
2023-03-24T14:04:30.460Z,1.83
2023-03-24T14:07:00.685Z,1.63
2023-03-24T14:09:33.357Z,0.70
2023-03-24T14:12:23.306Z,0.80
2023-03-24T14:15:15.601Z,0.60
2023-03-24T14:17:52.952Z,0.70
2023-03-24T14:20:36.600Z,0.67
2023-03-24T14:23:07.730Z,0.70
2023-03-24T14:25:39.556Z,0.90
2023-03-24T14:28:19.900Z,1.00
2023-03-24T14:31:27.560Z,0.83
2023-03-24T14:34:11.213Z,1.10
2023-03-24T14:36:44.395Z,1.10
2023-03-24T14:39:31.301Z,1.10
2023-03-24T14:42:01.567Z,1.00
2023-03-24T14:44:56.838Z,1.83
2023-03-24T14:47:31.481Z,1.40
2023-03-24T14:50:04.132Z,1.80
2023-03-24T14:52:42.183Z,1.50
2023-03-24T14:55:16.711Z,1.60
2023-03-24T14:57:47.930Z,1.50
2023-03-24T15:00:22.655Z,1.33
2023-03-24T15:02:53.227Z,1.70
2023-03-24T15:05:31.740Z,1.53
2023-03-24T15:08:05.901Z,1.83
2023-03-24T15:10:41.210Z,1.50
2023-03-24T15:13:30.967Z,2.00
2023-03-24T15:16:00.142Z,2.03
2023-03-24T15:18:29.789Z,1.53
2023-03-24T15:20:59.304Z,2.07
2023-03-24T15:23:30.373Z,1.50
2023-03-24T15:26:00.235Z,2.07
2023-03-24T15:28:33.599Z,1.90
2023-03-24T15:31:03.470Z,1.53
2023-03-24T15:33:40.808Z,2.30
2023-03-24T15:36:17.096Z,1.97
2023-03-24T15:38:52.605Z,1.60
2023-03-24T15:41:24.262Z,1.70
2023-03-24T15:43:54.723Z,1.80
2023-03-24T15:46:28.839Z,3.70
2023-03-24T15:48:59.781Z,1.83
2023-03-24T15:51:50.875Z,2.20
2023-03-24T15:54:26.911Z,2.70
2023-03-24T15:57:15.116Z,2.07
2023-03-24T15:59:49.538Z,2.47
2023-03-24T16:02:28.509Z,2.90
2023-03-24T16:05:10.880Z,3.70
2023-03-24T16:07:43.293Z,2.23
2023-03-24T16:13:16.662Z,1.50
2023-03-24T16:15:48.323Z,2.83
2023-03-24T16:18:19.804Z,3.17
2023-03-24T16:20:49.097Z,3.33
2023-03-24T16:23:18.602Z,4.43
2023-03-24T16:25:47.655Z,5.93
2023-03-24T16:28:20.869Z,4.17
2023-03-24T16:30:54.505Z,4.57
2023-03-24T16:33:23.641Z,3.33
2023-03-24T16:35:52.317Z,3.63
2023-03-24T16:38:22.764Z,3.20
2023-03-24T16:40:54.557Z,2.80
2023-03-24T16:43:25.191Z,3.20
2023-03-24T16:45:54.012Z,3.10
2023-03-24T16:48:23.214Z,9.17
2023-03-24T16:50:55.173Z,6.43
2023-03-24T16:53:23.943Z,10.43
2023-03-24T16:55:52.951Z,6.70
2023-03-24T16:58:21.901Z,2.70
2023-03-24T17:00:53.773Z,4.73
2023-03-24T17:03:24.701Z,3.60
2023-03-24T17:05:53.556Z,2.10
2023-03-24T17:08:22.450Z,3.03
2023-03-24T17:10:53.878Z,2.40
2023-03-24T17:13:25.690Z,2.90
2023-03-24T17:15:56.551Z,2.30
2023-03-24T17:18:25.827Z,2.37
2023-03-24T17:20:54.830Z,2.63
2023-03-24T17:23:24.198Z,2.90
2023-03-24T17:25:52.959Z,2.97
2023-03-24T17:28:21.645Z,2.33
2023-03-24T17:30:50.846Z,1.50
2023-03-24T17:33:23.273Z,1.77
2023-03-24T17:35:52.829Z,2.00
2023-03-24T17:38:21.588Z,1.83
2023-03-24T17:40:50.952Z,1.73
2023-03-24T17:43:20.078Z,1.43
2023-03-24T17:45:48.967Z,1.87
2023-03-24T17:48:17.736Z,1.80
2023-03-24T17:50:49.793Z,2.00
2023-03-24T17:53:25.846Z,3.80
2023-03-24T17:55:56.255Z,2.60
2023-03-24T17:58:26.811Z,2.43
2023-03-24T18:00:56.604Z,2.07
2023-03-24T18:03:26.842Z,1.93
2023-03-24T18:05:57.230Z,1.90
2023-03-24T18:08:26.577Z,2.33
2023-03-24T18:11:04.647Z,2.30
2023-03-24T18:13:33.603Z,2.27
2023-03-24T18:16:13.350Z,2.50
2023-03-24T18:18:49.423Z,2.10
2023-03-24T18:21:21.242Z,2.33
2023-03-24T18:23:50.319Z,2.87
2023-03-24T18:26:20.138Z,3.30
2023-03-24T18:28:49.989Z,3.23
2023-03-24T18:31:20.478Z,3.03
2023-03-24T18:33:50.276Z,2.60
2023-03-24T18:36:26.784Z,2.50
2023-03-24T18:38:58.801Z,2.50
2023-03-24T18:41:28.505Z,2.27
2023-03-24T18:44:01.615Z,2.57
2023-03-24T18:46:30.673Z,2.77
2023-03-24T18:49:00.473Z,2.73
2023-03-24T18:51:33.239Z,2.83
2023-03-24T18:54:04.583Z,2.97
2023-03-24T18:56:34.676Z,2.50
2023-03-24T18:59:07.193Z,2.40
2023-03-24T19:01:36.416Z,2.20
2023-03-24T19:04:06.209Z,2.80
2023-03-24T19:06:37.582Z,2.20
2023-03-24T19:09:07.373Z,3.40
2023-03-24T19:11:37.050Z,4.00
2023-03-24T19:14:08.727Z,4.13
2023-03-24T19:16:38.013Z,4.13
2023-03-24T19:19:08.232Z,5.43
2023-03-24T19:21:40.640Z,5.63
2023-03-24T19:24:10.082Z,3.90
2023-03-24T19:26:40.744Z,3.70
2023-03-24T19:29:09.910Z,4.50
2023-03-24T19:31:39.611Z,3.80
2023-03-24T19:34:09.269Z,3.97
2023-03-24T19:36:43.510Z,5.37
2023-03-24T19:39:14.450Z,5.30
2023-03-24T19:41:43.470Z,2.97
2023-03-24T19:44:13.467Z,2.10
2023-03-24T19:46:42.752Z,2.43
2023-03-24T19:49:11.891Z,1.90
2023-03-24T19:51:42.873Z,2.70
2023-03-24T19:54:12.418Z,2.43
2023-03-24T19:56:41.409Z,3.00
2023-03-24T19:59:10.874Z,2.77
2023-03-24T20:01:40.009Z,2.63
2023-03-24T20:04:09.450Z,2.30
2023-03-24T20:06:38.609Z,1.87
2023-03-24T20:09:09.210Z,1.87
2023-03-24T20:11:39.325Z,2.17
2023-03-24T20:14:10.991Z,1.80
2023-03-24T20:16:40.378Z,1.70
2023-03-24T20:19:09.693Z,2.00
2023-03-24T20:21:38.677Z,1.80
2023-03-24T20:24:09.697Z,1.57
2023-03-24T20:26:38.549Z,1.77
2023-03-24T20:29:08.149Z,1.80
2023-03-24T20:31:41.117Z,1.50
2023-03-24T20:34:11.525Z,1.30
2023-03-24T20:36:41.639Z,1.50
2023-03-24T20:39:12.557Z,1.47
2023-03-24T20:41:43.093Z,1.60
2023-03-24T20:44:12.043Z,1.60
2023-03-24T20:46:41.988Z,1.50
2023-03-24T20:49:14.473Z,1.60
2023-03-24T20:51:43.288Z,1.87
2023-03-24T20:54:14.154Z,1.90
2023-03-24T20:56:46.295Z,1.90
2023-03-24T20:59:15.318Z,2.07
2023-03-24T21:01:44.371Z,1.60
2023-03-24T21:04:13.705Z,1.87
2023-03-24T21:06:43.061Z,2.07
2023-03-24T21:09:13.612Z,1.73
2023-03-24T21:11:45.246Z,1.60
2023-03-24T21:14:14.173Z,1.77
2023-03-24T21:16:43.886Z,1.50
2023-03-24T21:19:14.842Z,1.73
2023-03-24T21:21:44.920Z,1.60
2023-03-24T21:24:15.595Z,1.33
2023-03-24T21:26:46.384Z,1.50
2023-03-24T21:29:16.205Z,1.33
2023-03-24T21:31:45.066Z,1.27
2023-03-24T21:34:14.309Z,1.10
2023-03-24T21:36:44.434Z,1.10
2023-03-24T21:39:15.471Z,1.30
2023-03-24T21:41:44.748Z,2.10
2023-03-24T21:44:13.813Z,1.37
2023-03-24T21:46:43.357Z,1.30
2023-03-24T21:49:13.146Z,2.93
2023-03-24T21:51:43.018Z,1.10
2023-03-24T21:54:15.181Z,1.27
2023-03-24T21:56:45.553Z,1.03
2023-03-24T21:59:15.187Z,1.30
2023-03-24T22:01:44.367Z,1.50
2023-03-24T22:04:13.653Z,1.40
2023-03-24T22:06:42.553Z,1.33
2023-03-24T22:09:12.433Z,1.33
2023-03-24T22:11:42.975Z,1.37
2023-03-24T22:14:13.321Z,1.90
2023-03-24T22:16:42.895Z,1.30
2023-03-24T22:19:12.082Z,1.30
2023-03-24T22:21:41.359Z,2.00
2023-03-24T22:24:10.702Z,1.53
2023-03-24T22:26:39.453Z,1.63
2023-03-24T22:29:09.483Z,1.63
2023-03-24T22:31:42.892Z,1.80
2023-03-24T22:34:14.005Z,1.63
2023-03-24T22:36:42.755Z,1.63
2023-03-24T22:39:12.365Z,1.27
2023-03-24T22:41:41.531Z,1.53
2023-03-24T22:44:11.020Z,1.20
2023-03-24T22:46:41.298Z,1.30
2023-03-24T22:49:10.130Z,1.30
2023-03-24T22:51:38.925Z,1.17
2023-03-24T22:54:07.670Z,1.53
2023-03-24T22:56:36.777Z,1.40
2023-03-24T22:59:07.558Z,1.70
2023-03-24T23:01:36.859Z,1.50
2023-03-24T23:04:07.663Z,1.70
2023-03-24T23:06:36.976Z,1.50
2023-03-24T23:09:06.744Z,1.47
2023-03-24T23:11:36.005Z,1.33
2023-03-24T23:14:06.437Z,1.73
2023-03-24T23:16:38.436Z,1.40
2023-03-24T23:19:09.761Z,1.03
2023-03-24T23:21:39.063Z,1.20
2023-03-24T23:24:08.278Z,1.37
2023-03-24T23:26:37.830Z,1.07
2023-03-24T23:29:06.565Z,1.40
2023-03-24T23:31:36.604Z,1.10
2023-03-24T23:34:07.779Z,1.20
2023-03-24T23:36:39.962Z,2.50
2023-03-24T23:39:09.376Z,1.97
2023-03-24T23:41:37.961Z,2.67
2023-03-24T23:44:06.845Z,4.77
2023-03-24T23:46:36.098Z,5.30
2023-03-24T23:49:04.740Z,3.00
2023-03-24T23:51:33.758Z,1.90
2023-03-24T23:54:03.947Z,2.40
2023-03-24T23:56:36.900Z,1.97
2023-03-24T23:59:06.573Z,2.50
